sensor_id;sensor_type;location;lat;lon;timestamp;temperature;humidity
56103;DHT22;41970;48.774;9.280;2022-12-07T00:01:15;5.70;99.90
56103;DHT22;41970;48.774;9.280;2022-12-07T00:03:43;5.70;99.90
56103;DHT22;41970;48.774;9.280;2022-12-07T00:06:11;5.70;99.90
56103;DHT22;41970;48.774;9.280;2022-12-07T00:08:38;5.70;99.90
56103;DHT22;41970;48.774;9.280;2022-12-07T00:11:23;5.70;99.90
56103;DHT22;41970;48.774;9.280;2022-12-07T00:14:10;5.70;99.90
56103;DHT22;41970;48.774;9.280;2022-12-07T00:16:36;5.70;99.90
56103;DHT22;41970;48.774;9.280;2022-12-07T00:19:03;5.70;99.90
56103;DHT22;41970;48.774;9.280;2022-12-07T00:21:31;5.80;99.90
56103;DHT22;41970;48.774;9.280;2022-12-07T00:23:58;5.60;99.90
56103;DHT22;41970;48.774;9.280;2022-12-07T00:26:29;5.40;99.90
56103;DHT22;41970;48.774;9.280;2022-12-07T00:28:58;5.40;99.90
56103;DHT22;41970;48.774;9.280;2022-12-07T00:31:27;5.50;99.90
56103;DHT22;41970;48.774;9.280;2022-12-07T00:33:53;5.70;99.90
56103;DHT22;41970;48.774;9.280;2022-12-07T00:36:22;5.80;99.90
56103;DHT22;41970;48.774;9.280;2022-12-07T00:38:51;5.80;99.90
56103;DHT22;41970;48.774;9.280;2022-12-07T00:41:21;5.80;99.90
56103;DHT22;41970;48.774;9.280;2022-12-07T00:43:48;5.80;99.90
56103;DHT22;41970;48.774;9.280;2022-12-07T00:46:15;5.80;99.90
56103;DHT22;41970;48.774;9.280;2022-12-07T00:48:45;5.80;99.90
56103;DHT22;41970;48.774;9.280;2022-12-07T00:51:12;5.70;99.90
56103;DHT22;41970;48.774;9.280;2022-12-07T00:53:40;5.70;99.90
56103;DHT22;41970;48.774;9.280;2022-12-07T00:56:07;5.70;99.90
56103;DHT22;41970;48.774;9.280;2022-12-07T00:58:33;5.70;99.90
56103;DHT22;41970;48.774;9.280;2022-12-07T01:01:01;5.80;99.90
56103;DHT22;41970;48.774;9.280;2022-12-07T01:03:28;5.80;99.90
56103;DHT22;41970;48.774;9.280;2022-12-07T01:05:55;5.80;99.90
56103;DHT22;41970;48.774;9.280;2022-12-07T01:08:22;5.70;99.90
56103;DHT22;41970;48.774;9.280;2022-12-07T01:10:48;5.70;99.90
56103;DHT22;41970;48.774;9.280;2022-12-07T01:13:15;5.70;99.90
56103;DHT22;41970;48.774;9.280;2022-12-07T01:15:44;5.60;99.90
56103;DHT22;41970;48.774;9.280;2022-12-07T01:18:13;5.70;99.90
56103;DHT22;41970;48.774;9.280;2022-12-07T01:20:39;5.60;99.90
56103;DHT22;41970;48.774;9.280;2022-12-07T01:23:05;5.70;99.90
56103;DHT22;41970;48.774;9.280;2022-12-07T01:25:32;5.70;99.90
56103;DHT22;41970;48.774;9.280;2022-12-07T01:27:57;5.60;99.90
56103;DHT22;41970;48.774;9.280;2022-12-07T01:30:23;5.70;99.90
56103;DHT22;41970;48.774;9.280;2022-12-07T01:32:49;5.60;99.90
56103;DHT22;41970;48.774;9.280;2022-12-07T01:35:15;5.60;99.90
56103;DHT22;41970;48.774;9.280;2022-12-07T01:37:41;5.60;99.90
56103;DHT22;41970;48.774;9.280;2022-12-07T01:40:08;5.60;99.90
56103;DHT22;41970;48.774;9.280;2022-12-07T01:42:34;5.60;99.90
56103;DHT22;41970;48.774;9.280;2022-12-07T01:47:58;5.50;99.90
56103;DHT22;41970;48.774;9.280;2022-12-07T01:50:26;5.60;99.90
56103;DHT22;41970;48.774;9.280;2022-12-07T01:52:56;5.60;99.90
56103;DHT22;41970;48.774;9.280;2022-12-07T01:55:23;5.60;99.90
56103;DHT22;41970;48.774;9.280;2022-12-07T01:57:51;5.70;99.90
56103;DHT22;41970;48.774;9.280;2022-12-07T02:00:19;5.60;99.90
56103;DHT22;41970;48.774;9.280;2022-12-07T02:03:16;5.60;99.90
56103;DHT22;41970;48.774;9.280;2022-12-07T02:05:43;5.60;99.90
56103;DHT22;41970;48.774;9.280;2022-12-07T02:08:10;5.60;99.90
56103;DHT22;41970;48.774;9.280;2022-12-07T02:10:37;5.40;99.90
56103;DHT22;41970;48.774;9.280;2022-12-07T02:13:24;5.50;99.90
56103;DHT22;41970;48.774;9.280;2022-12-07T02:21:54;5.70;99.90
56103;DHT22;41970;48.774;9.280;2022-12-07T02:27:21;5.70;99.90
56103;DHT22;41970;48.774;9.280;2022-12-07T02:30:14;5.70;99.90
56103;DHT22;41970;48.774;9.280;2022-12-07T02:33:07;5.60;99.90
56103;DHT22;41970;48.774;9.280;2022-12-07T02:35:46;5.70;99.90
56103;DHT22;41970;48.774;9.280;2022-12-07T02:41:16;5.80;99.90
56103;DHT22;41970;48.774;9.280;2022-12-07T02:43:47;5.90;99.90
56103;DHT22;41970;48.774;9.280;2022-12-07T02:46:20;5.90;99.90
56103;DHT22;41970;48.774;9.280;2022-12-07T02:48:47;5.90;99.90
56103;DHT22;41970;48.774;9.280;2022-12-07T02:51:14;5.80;99.90
56103;DHT22;41970;48.774;9.280;2022-12-07T02:53:41;5.70;99.90
56103;DHT22;41970;48.774;9.280;2022-12-07T03:01:48;5.80;99.90
56103;DHT22;41970;48.774;9.280;2022-12-07T03:04:48;5.90;99.90
56103;DHT22;41970;48.774;9.280;2022-12-07T03:07:26;5.90;99.90
56103;DHT22;41970;48.774;9.280;2022-12-07T03:12:55;5.40;99.90
56103;DHT22;41970;48.774;9.280;2022-12-07T03:18:00;5.50;99.90
56103;DHT22;41970;48.774;9.280;2022-12-07T03:20:29;5.50;99.90
56103;DHT22;41970;48.774;9.280;2022-12-07T03:22:56;5.70;99.90
56103;DHT22;41970;48.774;9.280;2022-12-07T03:25:23;5.60;99.90
56103;DHT22;41970;48.774;9.280;2022-12-07T03:27:58;5.60;99.90
56103;DHT22;41970;48.774;9.280;2022-12-07T03:31:00;5.60;99.90
56103;DHT22;41970;48.774;9.280;2022-12-07T03:33:28;5.40;99.90
56103;DHT22;41970;48.774;9.280;2022-12-07T03:36:11;5.60;99.90
56103;DHT22;41970;48.774;9.280;2022-12-07T03:38:50;5.30;99.90
56103;DHT22;41970;48.774;9.280;2022-12-07T03:41:37;5.00;99.90
56103;DHT22;41970;48.774;9.280;2022-12-07T03:44:03;4.80;99.90
56103;DHT22;41970;48.774;9.280;2022-12-07T03:49:40;4.40;99.90
56103;DHT22;41970;48.774;9.280;2022-12-07T03:54:45;4.00;99.90
56103;DHT22;41970;48.774;9.280;2022-12-07T03:57:14;3.90;99.90
56103;DHT22;41970;48.774;9.280;2022-12-07T03:59:40;3.80;99.90
56103;DHT22;41970;48.774;9.280;2022-12-07T04:02:07;3.90;99.90
56103;DHT22;41970;48.774;9.280;2022-12-07T04:04:34;4.10;99.90
56103;DHT22;41970;48.774;9.280;2022-12-07T04:07:00;4.20;99.90
56103;DHT22;41970;48.774;9.280;2022-12-07T04:09:26;4.30;99.90
56103;DHT22;41970;48.774;9.280;2022-12-07T04:11:52;4.30;99.90
56103;DHT22;41970;48.774;9.280;2022-12-07T04:14:18;4.30;99.90
56103;DHT22;41970;48.774;9.280;2022-12-07T04:16:54;4.40;99.90
56103;DHT22;41970;48.774;9.280;2022-12-07T04:19:29;4.60;99.90
56103;DHT22;41970;48.774;9.280;2022-12-07T04:21:56;4.70;99.90
56103;DHT22;41970;48.774;9.280;2022-12-07T04:24:24;4.80;99.90
56103;DHT22;41970;48.774;9.280;2022-12-07T04:26:51;4.90;99.90
56103;DHT22;41970;48.774;9.280;2022-12-07T04:29:17;5.00;99.90
56103;DHT22;41970;48.774;9.280;2022-12-07T04:31:43;5.00;99.90
56103;DHT22;41970;48.774;9.280;2022-12-07T04:34:10;5.00;99.90
56103;DHT22;41970;48.774;9.280;2022-12-07T04:36:37;4.80;99.90
56103;DHT22;41970;48.774;9.280;2022-12-07T04:39:04;4.20;99.90
56103;DHT22;41970;48.774;9.280;2022-12-07T04:41:30;3.80;99.90
56103;DHT22;41970;48.774;9.280;2022-12-07T04:44:02;3.50;99.90
56103;DHT22;41970;48.774;9.280;2022-12-07T04:46:30;3.40;99.90
56103;DHT22;41970;48.774;9.280;2022-12-07T04:48:59;3.40;99.90
56103;DHT22;41970;48.774;9.280;2022-12-07T04:51:28;3.40;99.90
56103;DHT22;41970;48.774;9.280;2022-12-07T04:53:55;3.50;99.90
56103;DHT22;41970;48.774;9.280;2022-12-07T04:56:24;3.40;99.90
56103;DHT22;41970;48.774;9.280;2022-12-07T04:58:52;3.30;99.90
56103;DHT22;41970;48.774;9.280;2022-12-07T05:01:19;3.30;99.90
56103;DHT22;41970;48.774;9.280;2022-12-07T05:03:45;3.30;99.90
56103;DHT22;41970;48.774;9.280;2022-12-07T05:06:14;3.20;99.90
56103;DHT22;41970;48.774;9.280;2022-12-07T05:08:44;3.20;99.90
56103;DHT22;41970;48.774;9.280;2022-12-07T05:11:11;3.40;99.90
56103;DHT22;41970;48.774;9.280;2022-12-07T05:14:01;3.50;99.90
56103;DHT22;41970;48.774;9.280;2022-12-07T05:16:27;3.70;99.90
56103;DHT22;41970;48.774;9.280;2022-12-07T05:18:54;3.80;99.90
56103;DHT22;41970;48.774;9.280;2022-12-07T05:21:20;3.90;99.90
56103;DHT22;41970;48.774;9.280;2022-12-07T05:23:45;3.90;99.90
56103;DHT22;41970;48.774;9.280;2022-12-07T05:26:11;4.00;99.90
56103;DHT22;41970;48.774;9.280;2022-12-07T05:28:37;4.20;99.90
56103;DHT22;41970;48.774;9.280;2022-12-07T05:31:03;4.30;99.90
56103;DHT22;41970;48.774;9.280;2022-12-07T05:33:29;4.40;99.90
56103;DHT22;41970;48.774;9.280;2022-12-07T05:35:55;4.50;99.90
56103;DHT22;41970;48.774;9.280;2022-12-07T05:38:21;4.40;99.90
56103;DHT22;41970;48.774;9.280;2022-12-07T05:40:47;4.50;99.90
56103;DHT22;41970;48.774;9.280;2022-12-07T05:43:12;4.60;99.90
56103;DHT22;41970;48.774;9.280;2022-12-07T05:45:38;4.70;99.90
56103;DHT22;41970;48.774;9.280;2022-12-07T05:48:04;4.70;99.90
56103;DHT22;41970;48.774;9.280;2022-12-07T05:50:30;4.70;99.90
56103;DHT22;41970;48.774;9.280;2022-12-07T05:52:56;4.70;99.90
56103;DHT22;41970;48.774;9.280;2022-12-07T05:55:21;4.80;99.90
56103;DHT22;41970;48.774;9.280;2022-12-07T05:57:47;4.70;99.90
56103;DHT22;41970;48.774;9.280;2022-12-07T06:00:32;4.80;99.90
56103;DHT22;41970;48.774;9.280;2022-12-07T06:02:58;4.70;99.90
56103;DHT22;41970;48.774;9.280;2022-12-07T06:05:24;4.70;99.90
56103;DHT22;41970;48.774;9.280;2022-12-07T06:07:49;4.50;99.90
56103;DHT22;41970;48.774;9.280;2022-12-07T06:10:15;4.50;99.90
56103;DHT22;41970;48.774;9.280;2022-12-07T06:12:41;4.50;99.90
56103;DHT22;41970;48.774;9.280;2022-12-07T06:15:09;4.50;99.90
56103;DHT22;41970;48.774;9.280;2022-12-07T06:17:36;4.60;99.90
56103;DHT22;41970;48.774;9.280;2022-12-07T06:20:03;4.50;99.90
56103;DHT22;41970;48.774;9.280;2022-12-07T06:22:29;4.50;99.90
56103;DHT22;41970;48.774;9.280;2022-12-07T06:24:54;4.30;99.90
56103;DHT22;41970;48.774;9.280;2022-12-07T06:27:20;4.20;99.90
56103;DHT22;41970;48.774;9.280;2022-12-07T06:29:46;4.30;99.90
56103;DHT22;41970;48.774;9.280;2022-12-07T06:32:12;4.40;99.90
56103;DHT22;41970;48.774;9.280;2022-12-07T06:34:38;4.50;99.90
56103;DHT22;41970;48.774;9.280;2022-12-07T06:37:04;4.60;99.90
56103;DHT22;41970;48.774;9.280;2022-12-07T06:39:30;4.60;99.90
56103;DHT22;41970;48.774;9.280;2022-12-07T06:41:57;4.60;99.90
56103;DHT22;41970;48.774;9.280;2022-12-07T06:44:23;4.60;99.90
56103;DHT22;41970;48.774;9.280;2022-12-07T06:46:50;4.60;99.90
56103;DHT22;41970;48.774;9.280;2022-12-07T06:49:16;4.60;99.90
56103;DHT22;41970;48.774;9.280;2022-12-07T06:51:43;4.50;99.90
56103;DHT22;41970;48.774;9.280;2022-12-07T06:54:12;4.50;99.90
56103;DHT22;41970;48.774;9.280;2022-12-07T06:56:38;4.60;99.90
56103;DHT22;41970;48.774;9.280;2022-12-07T06:59:05;4.60;99.90
56103;DHT22;41970;48.774;9.280;2022-12-07T07:01:32;4.60;99.90
56103;DHT22;41970;48.774;9.280;2022-12-07T07:04:00;4.50;99.90
56103;DHT22;41970;48.774;9.280;2022-12-07T07:06:26;4.50;99.90
56103;DHT22;41970;48.774;9.280;2022-12-07T07:08:52;4.40;99.90
56103;DHT22;41970;48.774;9.280;2022-12-07T07:11:18;4.40;99.90
56103;DHT22;41970;48.774;9.280;2022-12-07T07:13:45;4.40;99.90
56103;DHT22;41970;48.774;9.280;2022-12-07T07:16:11;4.50;99.90
56103;DHT22;41970;48.774;9.280;2022-12-07T07:18:37;4.50;99.90
56103;DHT22;41970;48.774;9.280;2022-12-07T07:21:03;4.60;99.90
56103;DHT22;41970;48.774;9.280;2022-12-07T07:23:29;4.60;99.90
56103;DHT22;41970;48.774;9.280;2022-12-07T07:25:55;4.60;99.90
56103;DHT22;41970;48.774;9.280;2022-12-07T07:28:21;4.50;99.90
56103;DHT22;41970;48.774;9.280;2022-12-07T07:30:47;4.50;99.90
56103;DHT22;41970;48.774;9.280;2022-12-07T07:33:12;4.50;99.90
56103;DHT22;41970;48.774;9.280;2022-12-07T07:35:39;4.50;99.90
56103;DHT22;41970;48.774;9.280;2022-12-07T07:38:05;4.70;99.90
56103;DHT22;41970;48.774;9.280;2022-12-07T07:40:31;4.70;99.90
56103;DHT22;41970;48.774;9.280;2022-12-07T07:42:57;4.80;99.90
56103;DHT22;41970;48.774;9.280;2022-12-07T07:45:25;4.80;99.90
56103;DHT22;41970;48.774;9.280;2022-12-07T07:47:51;4.80;99.90
56103;DHT22;41970;48.774;9.280;2022-12-07T07:50:17;4.70;99.90
56103;DHT22;41970;48.774;9.280;2022-12-07T07:52:44;4.80;99.90
56103;DHT22;41970;48.774;9.280;2022-12-07T07:55:10;4.80;99.90
56103;DHT22;41970;48.774;9.280;2022-12-07T07:57:37;4.80;99.90
56103;DHT22;41970;48.774;9.280;2022-12-07T08:00:06;4.90;99.90
56103;DHT22;41970;48.774;9.280;2022-12-07T08:02:32;4.90;99.90
56103;DHT22;41970;48.774;9.280;2022-12-07T08:04:58;5.00;99.90
56103;DHT22;41970;48.774;9.280;2022-12-07T08:07:23;5.10;99.90
56103;DHT22;41970;48.774;9.280;2022-12-07T08:09:49;5.10;99.90
56103;DHT22;41970;48.774;9.280;2022-12-07T08:12:15;5.10;99.90
56103;DHT22;41970;48.774;9.280;2022-12-07T08:14:41;5.20;99.90
56103;DHT22;41970;48.774;9.280;2022-12-07T08:17:07;5.10;99.90
56103;DHT22;41970;48.774;9.280;2022-12-07T08:19:32;5.20;99.90
56103;DHT22;41970;48.774;9.280;2022-12-07T08:21:58;5.20;99.90
56103;DHT22;41970;48.774;9.280;2022-12-07T08:24:24;5.20;99.90
56103;DHT22;41970;48.774;9.280;2022-12-07T08:26:50;5.30;99.90
56103;DHT22;41970;48.774;9.280;2022-12-07T08:29:17;5.40;99.90
56103;DHT22;41970;48.774;9.280;2022-12-07T08:31:43;5.40;99.90
56103;DHT22;41970;48.774;9.280;2022-12-07T08:34:10;5.40;99.90
56103;DHT22;41970;48.774;9.280;2022-12-07T08:36:36;5.50;99.90
56103;DHT22;41970;48.774;9.280;2022-12-07T08:39:03;5.60;99.90
56103;DHT22;41970;48.774;9.280;2022-12-07T08:41:29;5.60;99.90
56103;DHT22;41970;48.774;9.280;2022-12-07T08:43:55;5.60;99.90
56103;DHT22;41970;48.774;9.280;2022-12-07T08:49:11;5.70;99.90
56103;DHT22;41970;48.774;9.280;2022-12-07T08:51:38;5.80;99.90
56103;DHT22;41970;48.774;9.280;2022-12-07T08:54:09;5.80;99.90
56103;DHT22;41970;48.774;9.280;2022-12-07T08:56:36;6.00;99.90
56103;DHT22;41970;48.774;9.280;2022-12-07T08:59:03;6.00;99.90
56103;DHT22;41970;48.774;9.280;2022-12-07T09:01:29;6.00;99.90
56103;DHT22;41970;48.774;9.280;2022-12-07T09:03:55;6.00;99.90
56103;DHT22;41970;48.774;9.280;2022-12-07T09:06:21;5.40;99.90
56103;DHT22;41970;48.774;9.280;2022-12-07T09:08:50;5.00;99.90
56103;DHT22;41970;48.774;9.280;2022-12-07T09:11:16;4.80;99.90
56103;DHT22;41970;48.774;9.280;2022-12-07T09:13:42;5.10;99.90
56103;DHT22;41970;48.774;9.280;2022-12-07T09:16:08;5.30;99.90
56103;DHT22;41970;48.774;9.280;2022-12-07T09:18:34;5.40;99.90
56103;DHT22;41970;48.774;9.280;2022-12-07T09:21:00;5.40;99.90
56103;DHT22;41970;48.774;9.280;2022-12-07T09:23:26;5.50;99.90
56103;DHT22;41970;48.774;9.280;2022-12-07T09:25:51;5.70;99.90
56103;DHT22;41970;48.774;9.280;2022-12-07T09:28:17;5.80;99.90
56103;DHT22;41970;48.774;9.280;2022-12-07T09:30:47;5.90;99.90
56103;DHT22;41970;48.774;9.280;2022-12-07T09:33:13;6.00;99.90
56103;DHT22;41970;48.774;9.280;2022-12-07T09:36:00;6.10;99.90
56103;DHT22;41970;48.774;9.280;2022-12-07T09:38:26;6.20;99.90
56103;DHT22;41970;48.774;9.280;2022-12-07T09:40:53;6.20;99.90
56103;DHT22;41970;48.774;9.280;2022-12-07T09:43:22;6.10;99.90
56103;DHT22;41970;48.774;9.280;2022-12-07T09:45:52;6.20;99.90
56103;DHT22;41970;48.774;9.280;2022-12-07T09:48:30;6.30;99.90
56103;DHT22;41970;48.774;9.280;2022-12-07T09:50:58;6.40;99.90
56103;DHT22;41970;48.774;9.280;2022-12-07T09:55:53;6.50;99.90
56103;DHT22;41970;48.774;9.280;2022-12-07T09:58:23;6.60;99.90
56103;DHT22;41970;48.774;9.280;2022-12-07T10:00:57;6.70;99.90
56103;DHT22;41970;48.774;9.280;2022-12-07T10:03:25;6.70;99.90
56103;DHT22;41970;48.774;9.280;2022-12-07T10:05:52;6.80;99.90
56103;DHT22;41970;48.774;9.280;2022-12-07T10:08:18;6.80;99.90
56103;DHT22;41970;48.774;9.280;2022-12-07T10:10:50;6.90;99.90
56103;DHT22;41970;48.774;9.280;2022-12-07T10:14:10;6.90;99.90
56103;DHT22;41970;48.774;9.280;2022-12-07T10:16:41;6.90;99.90
56103;DHT22;41970;48.774;9.280;2022-12-07T10:19:30;6.90;99.90
56103;DHT22;41970;48.774;9.280;2022-12-07T10:22:12;6.90;99.90
56103;DHT22;41970;48.774;9.280;2022-12-07T10:24:40;7.00;99.90
56103;DHT22;41970;48.774;9.280;2022-12-07T10:29:50;7.00;99.90
56103;DHT22;41970;48.774;9.280;2022-12-07T10:34:42;7.10;99.90
56103;DHT22;41970;48.774;9.280;2022-12-07T10:39:51;7.10;99.90
56103;DHT22;41970;48.774;9.280;2022-12-07T10:42:26;7.10;99.90
56103;DHT22;41970;48.774;9.280;2022-12-07T11:01:24;7.00;99.90
56103;DHT22;41970;48.774;9.280;2022-12-07T11:04:03;7.00;99.90
56103;DHT22;41970;48.774;9.280;2022-12-07T11:06:39;6.80;99.90
56103;DHT22;41970;48.774;9.280;2022-12-07T11:12:18;6.70;99.90
56103;DHT22;41970;48.774;9.280;2022-12-07T11:26:27;6.60;99.90
56103;DHT22;41970;48.774;9.280;2022-12-07T11:36:57;6.50;99.90
56103;DHT22;41970;48.774;9.280;2022-12-07T11:39:30;6.30;99.90
56103;DHT22;41970;48.774;9.280;2022-12-07T11:42:12;6.40;99.90
56103;DHT22;41970;48.774;9.280;2022-12-07T11:45:02;6.40;99.90
56103;DHT22;41970;48.774;9.280;2022-12-07T11:47:47;6.40;99.90
56103;DHT22;41970;48.774;9.280;2022-12-07T11:50:37;6.50;99.90
56103;DHT22;41970;48.774;9.280;2022-12-07T12:06:41;6.30;99.90
56103;DHT22;41970;48.774;9.280;2022-12-07T12:09:11;6.20;99.90
56103;DHT22;41970;48.774;9.280;2022-12-07T12:17:44;6.30;99.90
56103;DHT22;41970;48.774;9.280;2022-12-07T12:22:55;6.10;99.90
56103;DHT22;41970;48.774;9.280;2022-12-07T12:27:54;6.20;99.90
56103;DHT22;41970;48.774;9.280;2022-12-07T12:30:38;6.20;99.90
56103;DHT22;41970;48.774;9.280;2022-12-07T12:33:27;6.00;99.90
56103;DHT22;41970;48.774;9.280;2022-12-07T12:46:52;6.10;99.90
56103;DHT22;41970;48.774;9.280;2022-12-07T12:55:15;5.90;99.90
56103;DHT22;41970;48.774;9.280;2022-12-07T12:57:47;5.90;99.90
56103;DHT22;41970;48.774;9.280;2022-12-07T13:00:23;5.90;99.90
56103;DHT22;41970;48.774;9.280;2022-12-07T13:02:55;6.00;99.90
56103;DHT22;41970;48.774;9.280;2022-12-07T13:05:23;6.00;99.90
56103;DHT22;41970;48.774;9.280;2022-12-07T13:07:54;6.10;99.90
56103;DHT22;41970;48.774;9.280;2022-12-07T13:15:56;6.30;99.90
56103;DHT22;41970;48.774;9.280;2022-12-07T13:18:40;6.30;99.90
56103;DHT22;41970;48.774;9.280;2022-12-07T13:23:56;6.20;99.90
56103;DHT22;41970;48.774;9.280;2022-12-07T13:34:36;6.10;99.90
56103;DHT22;41970;48.774;9.280;2022-12-07T13:37:15;6.10;99.90
56103;DHT22;41970;48.774;9.280;2022-12-07T13:39:55;6.00;99.90
56103;DHT22;41970;48.774;9.280;2022-12-07T13:42:32;6.00;99.90
56103;DHT22;41970;48.774;9.280;2022-12-07T13:45:01;6.10;99.90
56103;DHT22;41970;48.774;9.280;2022-12-07T13:47:53;6.20;99.90
56103;DHT22;41970;48.774;9.280;2022-12-07T13:50:29;6.30;99.90
56103;DHT22;41970;48.774;9.280;2022-12-07T13:53:00;6.30;99.90
56103;DHT22;41970;48.774;9.280;2022-12-07T13:55:30;6.40;99.90
56103;DHT22;41970;48.774;9.280;2022-12-07T13:57:56;6.40;99.90
56103;DHT22;41970;48.774;9.280;2022-12-07T14:00:28;6.40;99.90
56103;DHT22;41970;48.774;9.280;2022-12-07T14:05:31;6.50;99.90
56103;DHT22;41970;48.774;9.280;2022-12-07T14:07:58;6.50;99.90
56103;DHT22;41970;48.774;9.280;2022-12-07T14:10:31;6.50;99.90
56103;DHT22;41970;48.774;9.280;2022-12-07T14:12:59;6.50;99.90
56103;DHT22;41970;48.774;9.280;2022-12-07T14:15:33;6.50;99.90
56103;DHT22;41970;48.774;9.280;2022-12-07T14:18:01;6.50;99.90
56103;DHT22;41970;48.774;9.280;2022-12-07T14:20:37;6.50;99.90
56103;DHT22;41970;48.774;9.280;2022-12-07T14:23:19;6.50;99.90
56103;DHT22;41970;48.774;9.280;2022-12-07T14:25:49;6.50;99.90
56103;DHT22;41970;48.774;9.280;2022-12-07T14:28:30;6.60;99.90
56103;DHT22;41970;48.774;9.280;2022-12-07T14:30:56;6.70;99.90
56103;DHT22;41970;48.774;9.280;2022-12-07T14:33:24;6.70;99.90
56103;DHT22;41970;48.774;9.280;2022-12-07T14:35:53;6.70;99.90
56103;DHT22;41970;48.774;9.280;2022-12-07T14:38:21;6.70;99.90
56103;DHT22;41970;48.774;9.280;2022-12-07T14:40:48;6.70;99.90
56103;DHT22;41970;48.774;9.280;2022-12-07T14:43:16;6.70;99.90
56103;DHT22;41970;48.774;9.280;2022-12-07T14:45:42;6.80;99.90
56103;DHT22;41970;48.774;9.280;2022-12-07T14:48:13;6.80;99.90
56103;DHT22;41970;48.774;9.280;2022-12-07T14:50:44;6.80;99.90
56103;DHT22;41970;48.774;9.280;2022-12-07T14:53:16;6.80;99.90
56103;DHT22;41970;48.774;9.280;2022-12-07T14:55:43;6.90;99.90
56103;DHT22;41970;48.774;9.280;2022-12-07T14:58:18;6.90;99.90
56103;DHT22;41970;48.774;9.280;2022-12-07T15:00:45;6.90;99.90
56103;DHT22;41970;48.774;9.280;2022-12-07T15:03:13;6.90;99.90
56103;DHT22;41970;48.774;9.280;2022-12-07T15:05:40;6.80;99.90
56103;DHT22;41970;48.774;9.280;2022-12-07T15:08:12;6.80;99.90
56103;DHT22;41970;48.774;9.280;2022-12-07T15:10:38;6.80;99.90
56103;DHT22;41970;48.774;9.280;2022-12-07T15:13:06;6.70;99.90
56103;DHT22;41970;48.774;9.280;2022-12-07T15:15:52;6.70;99.90
56103;DHT22;41970;48.774;9.280;2022-12-07T15:18:19;6.60;99.90
56103;DHT22;41970;48.774;9.280;2022-12-07T15:20:46;6.60;99.90
56103;DHT22;41970;48.774;9.280;2022-12-07T15:23:12;6.50;99.90
56103;DHT22;41970;48.774;9.280;2022-12-07T15:25:44;6.50;99.90
56103;DHT22;41970;48.774;9.280;2022-12-07T15:28:10;6.40;99.90
56103;DHT22;41970;48.774;9.280;2022-12-07T15:30:40;6.30;99.90
56103;DHT22;41970;48.774;9.280;2022-12-07T15:33:08;6.40;99.90
56103;DHT22;41970;48.774;9.280;2022-12-07T15:35:38;6.40;99.90
56103;DHT22;41970;48.774;9.280;2022-12-07T15:38:04;6.40;99.90
56103;DHT22;41970;48.774;9.280;2022-12-07T15:40:35;6.40;99.90
56103;DHT22;41970;48.774;9.280;2022-12-07T15:43:03;6.40;99.90
56103;DHT22;41970;48.774;9.280;2022-12-07T15:45:29;6.50;99.90
56103;DHT22;41970;48.774;9.280;2022-12-07T15:47:56;6.50;99.90
56103;DHT22;41970;48.774;9.280;2022-12-07T15:50:22;6.50;99.90
56103;DHT22;41970;48.774;9.280;2022-12-07T15:52:48;6.50;99.90
56103;DHT22;41970;48.774;9.280;2022-12-07T15:55:14;6.50;99.90
56103;DHT22;41970;48.774;9.280;2022-12-07T15:57:40;6.40;99.90
56103;DHT22;41970;48.774;9.280;2022-12-07T16:00:08;6.40;99.90
56103;DHT22;41970;48.774;9.280;2022-12-07T16:02:37;6.30;99.90
56103;DHT22;41970;48.774;9.280;2022-12-07T16:05:03;6.30;99.90
56103;DHT22;41970;48.774;9.280;2022-12-07T16:07:29;6.30;99.90
56103;DHT22;41970;48.774;9.280;2022-12-07T16:09:55;6.30;99.90
56103;DHT22;41970;48.774;9.280;2022-12-07T16:12:21;6.30;99.90
56103;DHT22;41970;48.774;9.280;2022-12-07T16:14:47;6.30;99.90
56103;DHT22;41970;48.774;9.280;2022-12-07T16:17:13;6.30;99.90
56103;DHT22;41970;48.774;9.280;2022-12-07T16:19:39;6.40;99.90
56103;DHT22;41970;48.774;9.280;2022-12-07T16:22:05;6.30;99.90
56103;DHT22;41970;48.774;9.280;2022-12-07T16:24:31;6.40;99.90
56103;DHT22;41970;48.774;9.280;2022-12-07T16:26:57;6.40;99.90
56103;DHT22;41970;48.774;9.280;2022-12-07T16:29:23;6.40;99.90
56103;DHT22;41970;48.774;9.280;2022-12-07T16:31:50;6.50;99.90
56103;DHT22;41970;48.774;9.280;2022-12-07T16:34:17;6.50;99.90
56103;DHT22;41970;48.774;9.280;2022-12-07T16:36:44;6.40;99.90
56103;DHT22;41970;48.774;9.280;2022-12-07T16:39:10;6.40;99.90
56103;DHT22;41970;48.774;9.280;2022-12-07T16:41:36;6.40;99.90
56103;DHT22;41970;48.774;9.280;2022-12-07T16:44:04;6.40;99.90
56103;DHT22;41970;48.774;9.280;2022-12-07T16:46:32;6.50;99.90
56103;DHT22;41970;48.774;9.280;2022-12-07T16:48:58;6.50;99.90
56103;DHT22;41970;48.774;9.280;2022-12-07T16:51:24;6.50;99.90
56103;DHT22;41970;48.774;9.280;2022-12-07T16:53:52;6.50;99.90
56103;DHT22;41970;48.774;9.280;2022-12-07T16:56:19;6.50;99.90
56103;DHT22;41970;48.774;9.280;2022-12-07T16:58:45;6.40;99.90
56103;DHT22;41970;48.774;9.280;2022-12-07T17:01:16;6.40;99.90
56103;DHT22;41970;48.774;9.280;2022-12-07T17:03:42;6.40;99.90
56103;DHT22;41970;48.774;9.280;2022-12-07T17:06:14;6.30;99.90
56103;DHT22;41970;48.774;9.280;2022-12-07T17:08:41;6.30;99.90
56103;DHT22;41970;48.774;9.280;2022-12-07T17:11:16;6.30;99.90
56103;DHT22;41970;48.774;9.280;2022-12-07T17:13:42;6.30;99.90
56103;DHT22;41970;48.774;9.280;2022-12-07T17:16:28;6.30;99.90
56103;DHT22;41970;48.774;9.280;2022-12-07T17:18:54;6.20;99.90
56103;DHT22;41970;48.774;9.280;2022-12-07T17:21:20;6.10;99.90
56103;DHT22;41970;48.774;9.280;2022-12-07T17:23:46;6.10;99.90
56103;DHT22;41970;48.774;9.280;2022-12-07T17:26:24;6.10;99.90
56103;DHT22;41970;48.774;9.280;2022-12-07T17:28:50;6.00;99.90
56103;DHT22;41970;48.774;9.280;2022-12-07T17:31:18;6.00;99.90
56103;DHT22;41970;48.774;9.280;2022-12-07T17:33:45;6.00;99.90
56103;DHT22;41970;48.774;9.280;2022-12-07T17:36:13;5.90;99.90
56103;DHT22;41970;48.774;9.280;2022-12-07T17:38:39;5.90;99.90
56103;DHT22;41970;48.774;9.280;2022-12-07T17:41:13;5.50;99.90
56103;DHT22;41970;48.774;9.280;2022-12-07T17:44:00;4.80;99.90
56103;DHT22;41970;48.774;9.280;2022-12-07T17:46:26;4.30;99.90
56103;DHT22;41970;48.774;9.280;2022-12-07T17:48:56;4.40;99.90
56103;DHT22;41970;48.774;9.280;2022-12-07T17:51:22;4.70;99.90
56103;DHT22;41970;48.774;9.280;2022-12-07T17:54:08;4.70;99.90
56103;DHT22;41970;48.774;9.280;2022-12-07T17:56:35;4.60;99.90
56103;DHT22;41970;48.774;9.280;2022-12-07T17:59:01;4.70;99.90
56103;DHT22;41970;48.774;9.280;2022-12-07T18:01:27;4.60;99.90
56103;DHT22;41970;48.774;9.280;2022-12-07T18:03:53;4.60;99.90
56103;DHT22;41970;48.774;9.280;2022-12-07T18:06:18;4.70;99.90
56103;DHT22;41970;48.774;9.280;2022-12-07T18:08:44;4.90;99.90
56103;DHT22;41970;48.774;9.280;2022-12-07T18:11:10;5.00;99.90
56103;DHT22;41970;48.774;9.280;2022-12-07T18:13:36;5.10;99.90
56103;DHT22;41970;48.774;9.280;2022-12-07T18:16:08;5.30;99.90
56103;DHT22;41970;48.774;9.280;2022-12-07T18:18:35;5.40;99.90
56103;DHT22;41970;48.774;9.280;2022-12-07T18:21:08;5.40;99.90
56103;DHT22;41970;48.774;9.280;2022-12-07T18:23:39;5.40;99.90